sensor_id;sensor_type;location;lat;lon;timestamp;P1;durP1;ratioP1;P2;durP2;ratioP2
59587;SDS011;45412;54.472;18.464;2022-07-29T00:01:39;7.10;;;2.30;;
59587;SDS011;45412;54.472;18.464;2022-07-29T00:04:27;10.30;;;2.70;;
59587;SDS011;45412;54.472;18.464;2022-07-29T00:07:16;9.40;;;2.90;;
59587;SDS011;45412;54.472;18.464;2022-07-29T00:10:04;9.00;;;2.90;;
59587;SDS011;45412;54.472;18.464;2022-07-29T00:12:52;9.80;;;2.70;;
59587;SDS011;45412;54.472;18.464;2022-07-29T00:15:41;11.40;;;2.70;;
59587;SDS011;45412;54.472;18.464;2022-07-29T00:18:30;9.70;;;3.20;;
59587;SDS011;45412;54.472;18.464;2022-07-29T00:21:18;10.60;;;2.90;;
59587;SDS011;45412;54.472;18.464;2022-07-29T00:24:06;9.30;;;3.00;;
59587;SDS011;45412;54.472;18.464;2022-07-29T00:26:55;10.40;;;3.10;;
59587;SDS011;45412;54.472;18.464;2022-07-29T00:29:43;11.90;;;3.10;;
59587;SDS011;45412;54.472;18.464;2022-07-29T00:32:33;11.00;;;2.90;;
59587;SDS011;45412;54.472;18.464;2022-07-29T00:35:21;11.40;;;3.40;;
59587;SDS011;45412;54.472;18.464;2022-07-29T00:38:28;11.40;;;3.00;;
59587;SDS011;45412;54.472;18.464;2022-07-29T00:41:17;9.50;;;3.00;;
59587;SDS011;45412;54.472;18.464;2022-07-29T00:44:05;11.80;;;3.40;;
59587;SDS011;45412;54.472;18.464;2022-07-29T00:46:53;10.30;;;3.20;;
59587;SDS011;45412;54.472;18.464;2022-07-29T00:49:42;9.20;;;2.80;;
59587;SDS011;45412;54.472;18.464;2022-07-29T00:52:31;9.40;;;3.00;;
59587;SDS011;45412;54.472;18.464;2022-07-29T00:55:21;9.50;;;3.10;;
59587;SDS011;45412;54.472;18.464;2022-07-29T00:58:10;11.50;;;3.10;;
59587;SDS011;45412;54.472;18.464;2022-07-29T01:01:00;9.60;;;2.70;;
59587;SDS011;45412;54.472;18.464;2022-07-29T01:03:49;9.80;;;2.90;;
59587;SDS011;45412;54.472;18.464;2022-07-29T01:06:37;10.50;;;3.10;;
59587;SDS011;45412;54.472;18.464;2022-07-29T01:09:25;9.50;;;2.80;;
59587;SDS011;45412;54.472;18.464;2022-07-29T01:12:33;7.30;;;2.60;;
59587;SDS011;45412;54.472;18.464;2022-07-29T01:15:23;10.20;;;2.60;;
59587;SDS011;45412;54.472;18.464;2022-07-29T01:18:18;8.60;;;2.60;;
59587;SDS011;45412;54.472;18.464;2022-07-29T01:25:26;8.50;;;2.70;;
59587;SDS011;45412;54.472;18.464;2022-07-29T01:30:50;7.80;;;2.30;;
59587;SDS011;45412;54.472;18.464;2022-07-29T01:33:46;6.90;;;2.80;;
59587;SDS011;45412;54.472;18.464;2022-07-29T01:36:57;6.90;;;2.30;;
59587;SDS011;45412;54.472;18.464;2022-07-29T01:39:55;9.20;;;2.70;;
59587;SDS011;45412;54.472;18.464;2022-07-29T01:42:52;10.80;;;2.70;;
59587;SDS011;45412;54.472;18.464;2022-07-29T01:45:50;9.80;;;2.60;;
59587;SDS011;45412;54.472;18.464;2022-07-29T01:48:56;8.30;;;2.40;;
59587;SDS011;45412;54.472;18.464;2022-07-29T01:51:54;6.60;;;2.60;;
59587;SDS011;45412;54.472;18.464;2022-07-29T01:55:02;8.30;;;2.30;;
59587;SDS011;45412;54.472;18.464;2022-07-29T01:57:56;9.00;;;3.00;;
59587;SDS011;45412;54.472;18.464;2022-07-29T02:00:47;6.60;;;2.30;;
59587;SDS011;45412;54.472;18.464;2022-07-29T02:03:36;8.30;;;2.20;;
59587;SDS011;45412;54.472;18.464;2022-07-29T02:06:26;7.90;;;2.40;;
59587;SDS011;45412;54.472;18.464;2022-07-29T02:09:15;10.80;;;2.60;;
59587;SDS011;45412;54.472;18.464;2022-07-29T02:12:05;9.30;;;3.80;;
59587;SDS011;45412;54.472;18.464;2022-07-29T02:14:54;8.90;;;2.70;;
59587;SDS011;45412;54.472;18.464;2022-07-29T02:17:50;7.10;;;2.70;;
59587;SDS011;45412;54.472;18.464;2022-07-29T02:20:47;8.10;;;2.40;;
59587;SDS011;45412;54.472;18.464;2022-07-29T02:23:36;7.10;;;2.20;;
59587;SDS011;45412;54.472;18.464;2022-07-29T02:26:37;9.60;;;2.80;;
59587;SDS011;45412;54.472;18.464;2022-07-29T02:29:29;8.00;;;2.40;;
59587;SDS011;45412;54.472;18.464;2022-07-29T02:32:19;8.70;;;2.40;;
59587;SDS011;45412;54.472;18.464;2022-07-29T02:35:13;8.50;;;2.40;;
59587;SDS011;45412;54.472;18.464;2022-07-29T02:38:02;7.50;;;2.30;;
59587;SDS011;45412;54.472;18.464;2022-07-29T02:41:12;9.80;;;2.50;;
59587;SDS011;45412;54.472;18.464;2022-07-29T02:44:15;7.20;;;1.90;;
59587;SDS011;45412;54.472;18.464;2022-07-29T02:53:22;8.20;;;2.00;;
59587;SDS011;45412;54.472;18.464;2022-07-29T02:56:13;7.30;;;1.90;;
59587;SDS011;45412;54.472;18.464;2022-07-29T02:59:09;8.80;;;2.20;;
59587;SDS011;45412;54.472;18.464;2022-07-29T03:01:58;6.30;;;2.20;;
59587;SDS011;45412;54.472;18.464;2022-07-29T03:04:48;8.20;;;2.30;;
59587;SDS011;45412;54.472;18.464;2022-07-29T03:07:39;10.70;;;2.30;;
59587;SDS011;45412;54.472;18.464;2022-07-29T03:10:31;7.20;;;1.90;;
59587;SDS011;45412;54.472;18.464;2022-07-29T03:13:20;6.50;;;2.10;;
59587;SDS011;45412;54.472;18.464;2022-07-29T03:16:09;8.40;;;2.30;;
59587;SDS011;45412;54.472;18.464;2022-07-29T03:18:58;7.80;;;2.70;;
59587;SDS011;45412;54.472;18.464;2022-07-29T03:21:48;7.50;;;2.20;;
59587;SDS011;45412;54.472;18.464;2022-07-29T03:24:36;9.60;;;2.30;;
59587;SDS011;45412;54.472;18.464;2022-07-29T03:27:24;7.40;;;2.30;;
59587;SDS011;45412;54.472;18.464;2022-07-29T03:30:13;6.80;;;2.30;;
59587;SDS011;45412;54.472;18.464;2022-07-29T03:33:08;7.40;;;2.00;;
59587;SDS011;45412;54.472;18.464;2022-07-29T03:36:00;7.20;;;2.00;;
59587;SDS011;45412;54.472;18.464;2022-07-29T03:38:50;7.90;;;2.40;;
59587;SDS011;45412;54.472;18.464;2022-07-29T03:41:38;7.90;;;2.20;;
59587;SDS011;45412;54.472;18.464;2022-07-29T03:44:30;6.40;;;2.10;;
59587;SDS011;45412;54.472;18.464;2022-07-29T03:47:22;8.10;;;2.70;;
59587;SDS011;45412;54.472;18.464;2022-07-29T03:50:35;8.20;;;2.50;;
59587;SDS011;45412;54.472;18.464;2022-07-29T03:53:23;6.80;;;2.20;;
59587;SDS011;45412;54.472;18.464;2022-07-29T03:56:11;7.20;;;2.30;;
59587;SDS011;45412;54.472;18.464;2022-07-29T03:59:04;7.80;;;2.30;;
59587;SDS011;45412;54.472;18.464;2022-07-29T04:01:52;7.30;;;2.40;;
59587;SDS011;45412;54.472;18.464;2022-07-29T04:04:43;7.80;;;2.50;;
59587;SDS011;45412;54.472;18.464;2022-07-29T04:07:31;7.40;;;2.80;;
59587;SDS011;45412;54.472;18.464;2022-07-29T04:10:19;8.90;;;2.60;;
59587;SDS011;45412;54.472;18.464;2022-07-29T04:13:19;8.30;;;2.80;;
59587;SDS011;45412;54.472;18.464;2022-07-29T04:16:08;7.80;;;2.70;;
59587;SDS011;45412;54.472;18.464;2022-07-29T04:18:56;6.80;;;2.10;;
59587;SDS011;45412;54.472;18.464;2022-07-29T04:21:44;6.60;;;2.10;;
59587;SDS011;45412;54.472;18.464;2022-07-29T04:24:32;8.60;;;2.40;;
59587;SDS011;45412;54.472;18.464;2022-07-29T04:27:21;7.90;;;2.50;;
59587;SDS011;45412;54.472;18.464;2022-07-29T04:30:10;8.90;;;3.40;;
59587;SDS011;45412;54.472;18.464;2022-07-29T04:32:58;8.90;;;2.90;;
59587;SDS011;45412;54.472;18.464;2022-07-29T04:35:48;7.80;;;2.70;;
59587;SDS011;45412;54.472;18.464;2022-07-29T04:38:41;7.60;;;2.70;;
59587;SDS011;45412;54.472;18.464;2022-07-29T04:41:29;9.00;;;2.80;;
59587;SDS011;45412;54.472;18.464;2022-07-29T04:44:20;9.00;;;2.70;;
59587;SDS011;45412;54.472;18.464;2022-07-29T04:47:15;7.80;;;2.60;;
59587;SDS011;45412;54.472;18.464;2022-07-29T04:50:03;8.40;;;3.40;;
59587;SDS011;45412;54.472;18.464;2022-07-29T04:52:53;9.00;;;3.70;;
59587;SDS011;45412;54.472;18.464;2022-07-29T04:55:40;9.20;;;3.00;;
59587;SDS011;45412;54.472;18.464;2022-07-29T04:58:28;10.90;;;3.30;;
59587;SDS011;45412;54.472;18.464;2022-07-29T05:01:16;9.20;;;3.20;;
59587;SDS011;45412;54.472;18.464;2022-07-29T05:04:05;9.40;;;3.10;;
59587;SDS011;45412;54.472;18.464;2022-07-29T05:06:53;9.20;;;2.90;;
59587;SDS011;45412;54.472;18.464;2022-07-29T05:09:41;12.10;;;2.60;;
59587;SDS011;45412;54.472;18.464;2022-07-29T05:12:29;12.70;;;2.60;;
59587;SDS011;45412;54.472;18.464;2022-07-29T05:15:17;8.20;;;2.10;;
59587;SDS011;45412;54.472;18.464;2022-07-29T05:18:05;7.30;;;2.00;;
59587;SDS011;45412;54.472;18.464;2022-07-29T05:20:53;7.10;;;1.80;;
59587;SDS011;45412;54.472;18.464;2022-07-29T05:23:43;8.20;;;1.90;;
59587;SDS011;45412;54.472;18.464;2022-07-29T05:26:31;7.10;;;1.70;;
59587;SDS011;45412;54.472;18.464;2022-07-29T05:29:19;6.70;;;1.50;;
59587;SDS011;45412;54.472;18.464;2022-07-29T05:32:27;6.70;;;1.40;;
59587;SDS011;45412;54.472;18.464;2022-07-29T05:35:15;7.00;;;1.30;;
59587;SDS011;45412;54.472;18.464;2022-07-29T05:38:03;4.80;;;1.10;;
59587;SDS011;45412;54.472;18.464;2022-07-29T05:40:56;5.60;;;1.10;;
59587;SDS011;45412;54.472;18.464;2022-07-29T05:43:46;6.60;;;1.40;;
59587;SDS011;45412;54.472;18.464;2022-07-29T05:46:34;6.40;;;1.40;;
59587;SDS011;45412;54.472;18.464;2022-07-29T05:49:22;6.10;;;1.50;;
59587;SDS011;45412;54.472;18.464;2022-07-29T05:52:14;7.10;;;1.30;;
59587;SDS011;45412;54.472;18.464;2022-07-29T05:55:03;5.50;;;1.30;;
59587;SDS011;45412;54.472;18.464;2022-07-29T05:57:53;6.80;;;1.50;;
59587;SDS011;45412;54.472;18.464;2022-07-29T06:00:41;7.50;;;1.30;;
59587;SDS011;45412;54.472;18.464;2022-07-29T06:03:29;5.60;;;1.30;;
59587;SDS011;45412;54.472;18.464;2022-07-29T06:06:17;7.30;;;1.20;;
59587;SDS011;45412;54.472;18.464;2022-07-29T06:09:05;3.30;;;0.70;;
59587;SDS011;45412;54.472;18.464;2022-07-29T06:11:58;5.00;;;0.80;;
59587;SDS011;45412;54.472;18.464;2022-07-29T06:14:47;4.80;;;0.80;;
59587;SDS011;45412;54.472;18.464;2022-07-29T06:17:40;6.00;;;0.80;;
59587;SDS011;45412;54.472;18.464;2022-07-29T06:20:48;5.30;;;1.10;;
59587;SDS011;45412;54.472;18.464;2022-07-29T06:23:39;5.20;;;0.90;;
59587;SDS011;45412;54.472;18.464;2022-07-29T06:26:27;6.10;;;0.90;;
59587;SDS011;45412;54.472;18.464;2022-07-29T06:29:18;5.50;;;1.10;;
59587;SDS011;45412;54.472;18.464;2022-07-29T06:32:06;6.20;;;0.80;;
59587;SDS011;45412;54.472;18.464;2022-07-29T06:34:54;6.00;;;1.00;;
59587;SDS011;45412;54.472;18.464;2022-07-29T06:38:03;5.70;;;0.90;;
59587;SDS011;45412;54.472;18.464;2022-07-29T06:41:11;5.30;;;0.90;;
59587;SDS011;45412;54.472;18.464;2022-07-29T06:44:00;6.40;;;1.20;;
59587;SDS011;45412;54.472;18.464;2022-07-29T06:46:48;5.80;;;1.00;;
59587;SDS011;45412;54.472;18.464;2022-07-29T06:49:37;3.90;;;0.90;;
59587;SDS011;45412;54.472;18.464;2022-07-29T06:52:26;4.90;;;1.00;;
59587;SDS011;45412;54.472;18.464;2022-07-29T06:55:14;5.30;;;1.00;;
59587;SDS011;45412;54.472;18.464;2022-07-29T06:58:11;7.80;;;1.10;;
59587;SDS011;45412;54.472;18.464;2022-07-29T07:01:02;4.70;;;0.60;;
59587;SDS011;45412;54.472;18.464;2022-07-29T07:03:51;5.20;;;0.80;;
59587;SDS011;45412;54.472;18.464;2022-07-29T07:06:40;6.00;;;0.90;;
59587;SDS011;45412;54.472;18.464;2022-07-29T07:09:28;5.40;;;0.70;;
59587;SDS011;45412;54.472;18.464;2022-07-29T07:12:26;6.00;;;1.00;;
59587;SDS011;45412;54.472;18.464;2022-07-29T07:15:14;6.90;;;1.00;;
59587;SDS011;45412;54.472;18.464;2022-07-29T07:18:03;6.40;;;0.70;;
59587;SDS011;45412;54.472;18.464;2022-07-29T07:20:53;5.80;;;1.00;;
59587;SDS011;45412;54.472;18.464;2022-07-29T07:23:41;6.00;;;0.90;;
59587;SDS011;45412;54.472;18.464;2022-07-29T07:26:29;5.70;;;1.20;;
59587;SDS011;45412;54.472;18.464;2022-07-29T07:29:17;6.60;;;0.90;;
59587;SDS011;45412;54.472;18.464;2022-07-29T07:32:06;5.00;;;1.00;;
59587;SDS011;45412;54.472;18.464;2022-07-29T07:34:55;6.00;;;1.10;;
59587;SDS011;45412;54.472;18.464;2022-07-29T07:37:45;6.70;;;1.00;;
59587;SDS011;45412;54.472;18.464;2022-07-29T07:40:35;8.20;;;1.40;;
59587;SDS011;45412;54.472;18.464;2022-07-29T07:43:24;9.20;;;2.00;;
59587;SDS011;45412;54.472;18.464;2022-07-29T07:46:13;8.00;;;1.40;;
59587;SDS011;45412;54.472;18.464;2022-07-29T07:49:01;9.00;;;1.20;;
59587;SDS011;45412;54.472;18.464;2022-07-29T07:51:50;6.20;;;1.20;;
59587;SDS011;45412;54.472;18.464;2022-07-29T07:54:38;7.20;;;1.50;;
59587;SDS011;45412;54.472;18.464;2022-07-29T07:57:26;6.40;;;1.30;;
59587;SDS011;45412;54.472;18.464;2022-07-29T08:00:15;7.80;;;1.00;;
59587;SDS011;45412;54.472;18.464;2022-07-29T08:03:04;5.40;;;1.00;;
59587;SDS011;45412;54.472;18.464;2022-07-29T08:06:03;5.70;;;0.80;;
59587;SDS011;45412;54.472;18.464;2022-07-29T08:08:52;4.10;;;0.90;;
59587;SDS011;45412;54.472;18.464;2022-07-29T08:11:42;4.90;;;1.00;;
59587;SDS011;45412;54.472;18.464;2022-07-29T08:14:38;5.60;;;1.10;;
59587;SDS011;45412;54.472;18.464;2022-07-29T08:17:26;6.60;;;1.70;;
59587;SDS011;45412;54.472;18.464;2022-07-29T08:20:14;6.60;;;1.70;;
59587;SDS011;45412;54.472;18.464;2022-07-29T08:23:03;6.10;;;0.80;;
59587;SDS011;45412;54.472;18.464;2022-07-29T08:25:51;4.60;;;0.70;;
59587;SDS011;45412;54.472;18.464;2022-07-29T08:28:42;5.70;;;1.60;;
59587;SDS011;45412;54.472;18.464;2022-07-29T08:31:33;3.90;;;0.60;;
59587;SDS011;45412;54.472;18.464;2022-07-29T08:34:21;6.90;;;0.90;;
59587;SDS011;45412;54.472;18.464;2022-07-29T08:37:14;6.50;;;0.70;;
59587;SDS011;45412;54.472;18.464;2022-07-29T08:40:03;5.10;;;0.80;;
59587;SDS011;45412;54.472;18.464;2022-07-29T08:42:51;4.70;;;0.80;;
59587;SDS011;45412;54.472;18.464;2022-07-29T08:45:48;4.10;;;0.80;;
59587;SDS011;45412;54.472;18.464;2022-07-29T08:48:43;4.60;;;0.70;;
59587;SDS011;45412;54.472;18.464;2022-07-29T08:51:32;4.20;;;0.70;;
59587;SDS011;45412;54.472;18.464;2022-07-29T08:54:35;4.80;;;0.60;;
59587;SDS011;45412;54.472;18.464;2022-07-29T08:57:23;4.20;;;0.70;;
59587;SDS011;45412;54.472;18.464;2022-07-29T09:00:13;4.40;;;0.60;;
59587;SDS011;45412;54.472;18.464;2022-07-29T09:03:02;5.20;;;0.70;;
59587;SDS011;45412;54.472;18.464;2022-07-29T09:05:52;5.10;;;1.60;;
59587;SDS011;45412;54.472;18.464;2022-07-29T09:08:41;5.20;;;1.10;;
59587;SDS011;45412;54.472;18.464;2022-07-29T09:11:32;5.30;;;0.90;;
59587;SDS011;45412;54.472;18.464;2022-07-29T09:14:20;5.80;;;0.70;;
59587;SDS011;45412;54.472;18.464;2022-07-29T09:17:09;4.80;;;0.70;;
59587;SDS011;45412;54.472;18.464;2022-07-29T09:20:07;3.40;;;0.50;;
59587;SDS011;45412;54.472;18.464;2022-07-29T09:23:06;4.10;;;0.60;;
59587;SDS011;45412;54.472;18.464;2022-07-29T09:25:56;3.80;;;0.60;;
59587;SDS011;45412;54.472;18.464;2022-07-29T09:28:53;4.30;;;0.70;;
59587;SDS011;45412;54.472;18.464;2022-07-29T09:31:42;2.70;;;0.50;;
59587;SDS011;45412;54.472;18.464;2022-07-29T09:34:33;3.50;;;0.40;;
59587;SDS011;45412;54.472;18.464;2022-07-29T09:37:30;4.20;;;0.70;;
59587;SDS011;45412;54.472;18.464;2022-07-29T09:40:28;4.10;;;0.60;;
59587;SDS011;45412;54.472;18.464;2022-07-29T09:43:16;3.80;;;0.70;;
59587;SDS011;45412;54.472;18.464;2022-07-29T09:46:13;4.00;;;0.60;;
59587;SDS011;45412;54.472;18.464;2022-07-29T09:49:09;3.20;;;0.60;;
59587;SDS011;45412;54.472;18.464;2022-07-29T09:55:09;3.70;;;0.50;;
59587;SDS011;45412;54.472;18.464;2022-07-29T09:58:20;4.20;;;0.70;;
59587;SDS011;45412;54.472;18.464;2022-07-29T10:01:11;3.20;;;0.50;;
59587;SDS011;45412;54.472;18.464;2022-07-29T10:03:59;4.40;;;0.80;;
59587;SDS011;45412;54.472;18.464;2022-07-29T10:07:02;4.70;;;0.70;;
59587;SDS011;45412;54.472;18.464;2022-07-29T10:09:56;4.80;;;0.60;;
59587;SDS011;45412;54.472;18.464;2022-07-29T10:12:57;4.20;;;0.60;;
59587;SDS011;45412;54.472;18.464;2022-07-29T10:15:55;3.20;;;0.50;;
59587;SDS011;45412;54.472;18.464;2022-07-29T10:18:44;3.20;;;0.40;;
59587;SDS011;45412;54.472;18.464;2022-07-29T10:21:34;3.60;;;0.40;;
59587;SDS011;45412;54.472;18.464;2022-07-29T10:24:24;5.00;;;0.60;;
59587;SDS011;45412;54.472;18.464;2022-07-29T10:27:16;3.00;;;0.50;;
59587;SDS011;45412;54.472;18.464;2022-07-29T10:30:05;1.80;;;0.40;;
59587;SDS011;45412;54.472;18.464;2022-07-29T10:43:27;2.70;;;0.50;;
59587;SDS011;45412;54.472;18.464;2022-07-29T10:46:20;2.40;;;0.50;;
59587;SDS011;45412;54.472;18.464;2022-07-29T10:49:19;4.00;;;0.60;;
59587;SDS011;45412;54.472;18.464;2022-07-29T10:52:11;5.20;;;1.70;;
59587;SDS011;45412;54.472;18.464;2022-07-29T10:54:59;9.10;;;6.50;;
59587;SDS011;45412;54.472;18.464;2022-07-29T10:58:13;7.00;;;2.70;;
59587;SDS011;45412;54.472;18.464;2022-07-29T11:01:30;3.30;;;0.70;;
59587;SDS011;45412;54.472;18.464;2022-07-29T11:14:09;3.10;;;0.60;;
59587;SDS011;45412;54.472;18.464;2022-07-29T11:17:03;2.60;;;0.50;;
59587;SDS011;45412;54.472;18.464;2022-07-29T11:23:28;3.00;;;0.60;;
59587;SDS011;45412;54.472;18.464;2022-07-29T11:26:20;4.30;;;0.60;;
59587;SDS011;45412;54.472;18.464;2022-07-29T11:29:18;2.80;;;0.50;;
59587;SDS011;45412;54.472;18.464;2022-07-29T11:32:13;3.30;;;0.60;;
59587;SDS011;45412;54.472;18.464;2022-07-29T11:38:27;4.40;;;0.60;;
59587;SDS011;45412;54.472;18.464;2022-07-29T11:41:27;2.40;;;0.60;;
59587;SDS011;45412;54.472;18.464;2022-07-29T11:44:19;3.90;;;0.80;;
59587;SDS011;45412;54.472;18.464;2022-07-29T11:47:56;4.10;;;0.90;;
59587;SDS011;45412;54.472;18.464;2022-07-29T11:51:09;7.80;;;3.30;;
59587;SDS011;45412;54.472;18.464;2022-07-29T11:54:03;5.40;;;1.40;;
59587;SDS011;45412;54.472;18.464;2022-07-29T11:57:02;4.60;;;1.30;;
59587;SDS011;45412;54.472;18.464;2022-07-29T11:59:51;4.20;;;0.80;;
59587;SDS011;45412;54.472;18.464;2022-07-29T12:02:41;3.80;;;0.70;;
59587;SDS011;45412;54.472;18.464;2022-07-29T12:05:43;3.40;;;0.60;;
59587;SDS011;45412;54.472;18.464;2022-07-29T12:08:55;3.20;;;0.70;;
59587;SDS011;45412;54.472;18.464;2022-07-29T12:11:46;4.70;;;1.00;;
59587;SDS011;45412;54.472;18.464;2022-07-29T12:14:34;3.90;;;0.80;;
59587;SDS011;45412;54.472;18.464;2022-07-29T12:17:31;3.90;;;0.70;;
59587;SDS011;45412;54.472;18.464;2022-07-29T12:20:28;3.60;;;0.80;;
59587;SDS011;45412;54.472;18.464;2022-07-29T12:23:17;5.00;;;0.70;;
59587;SDS011;45412;54.472;18.464;2022-07-29T12:26:05;5.00;;;0.80;;
59587;SDS011;45412;54.472;18.464;2022-07-29T12:29:15;4.70;;;0.70;;
59587;SDS011;45412;54.472;18.464;2022-07-29T12:32:06;4.30;;;0.70;;
59587;SDS011;45412;54.472;18.464;2022-07-29T12:35:11;4.90;;;1.10;;
59587;SDS011;45412;54.472;18.464;2022-07-29T12:38:02;3.30;;;0.60;;
59587;SDS011;45412;54.472;18.464;2022-07-29T12:40:52;3.10;;;0.70;;
59587;SDS011;45412;54.472;18.464;2022-07-29T12:43:55;3.30;;;0.80;;
59587;SDS011;45412;54.472;18.464;2022-07-29T12:46:43;3.60;;;0.90;;
59587;SDS011;45412;54.472;18.464;2022-07-29T12:49:34;5.30;;;1.30;;
59587;SDS011;45412;54.472;18.464;2022-07-29T12:52:30;3.80;;;0.80;;
59587;SDS011;45412;54.472;18.464;2022-07-29T12:55:45;5.40;;;0.80;;
59587;SDS011;45412;54.472;18.464;2022-07-29T12:58:40;3.90;;;0.90;;
59587;SDS011;45412;54.472;18.464;2022-07-29T13:01:36;3.50;;;0.80;;
59587;SDS011;45412;54.472;18.464;2022-07-29T13:07:17;2.90;;;0.60;;
59587;SDS011;45412;54.472;18.464;2022-07-29T13:10:35;3.90;;;0.90;;
59587;SDS011;45412;54.472;18.464;2022-07-29T13:13:24;2.80;;;0.60;;
59587;SDS011;45412;54.472;18.464;2022-07-29T13:16:12;3.50;;;0.90;;
59587;SDS011;45412;54.472;18.464;2022-07-29T13:19:05;3.60;;;0.70;;
59587;SDS011;45412;54.472;18.464;2022-07-29T13:21:55;4.40;;;0.70;;
59587;SDS011;45412;54.472;18.464;2022-07-29T13:27:39;3.40;;;0.70;;
59587;SDS011;45412;54.472;18.464;2022-07-29T13:30:28;5.30;;;0.80;;
59587;SDS011;45412;54.472;18.464;2022-07-29T13:33:16;3.30;;;0.70;;
59587;SDS011;45412;54.472;18.464;2022-07-29T13:36:05;2.80;;;0.60;;
59587;SDS011;45412;54.472;18.464;2022-07-29T13:38:53;3.60;;;0.80;;
59587;SDS011;45412;54.472;18.464;2022-07-29T13:41:41;3.30;;;0.70;;
59587;SDS011;45412;54.472;18.464;2022-07-29T13:44:30;3.40;;;0.70;;
59587;SDS011;45412;54.472;18.464;2022-07-29T13:47:19;7.90;;;0.80;;
59587;SDS011;45412;54.472;18.464;2022-07-29T13:50:08;3.60;;;0.70;;
59587;SDS011;45412;54.472;18.464;2022-07-29T13:52:58;3.40;;;0.80;;
59587;SDS011;45412;54.472;18.464;2022-07-29T13:55:46;4.50;;;0.80;;
59587;SDS011;45412;54.472;18.464;2022-07-29T13:58:34;5.40;;;0.90;;
59587;SDS011;45412;54.472;18.464;2022-07-29T14:01:23;3.80;;;0.70;;
59587;SDS011;45412;54.472;18.464;2022-07-29T14:04:12;3.70;;;0.70;;
59587;SDS011;45412;54.472;18.464;2022-07-29T14:07:01;4.60;;;0.90;;
59587;SDS011;45412;54.472;18.464;2022-07-29T14:09:50;4.60;;;0.90;;
59587;SDS011;45412;54.472;18.464;2022-07-29T14:12:41;4.10;;;0.90;;
59587;SDS011;45412;54.472;18.464;2022-07-29T14:15:29;4.40;;;0.80;;
59587;SDS011;45412;54.472;18.464;2022-07-29T14:18:17;5.60;;;1.40;;
59587;SDS011;45412;54.472;18.464;2022-07-29T14:21:05;8.10;;;1.70;;
59587;SDS011;45412;54.472;18.464;2022-07-29T14:23:54;10.40;;;2.30;;
59587;SDS011;45412;54.472;18.464;2022-07-29T14:26:42;8.00;;;1.80;;
59587;SDS011;45412;54.472;18.464;2022-07-29T14:29:32;6.50;;;1.30;;
59587;SDS011;45412;54.472;18.464;2022-07-29T14:32:25;8.40;;;1.70;;
59587;SDS011;45412;54.472;18.464;2022-07-29T14:35:13;5.80;;;1.30;;
59587;SDS011;45412;54.472;18.464;2022-07-29T14:38:01;7.30;;;1.50;;
59587;SDS011;45412;54.472;18.464;2022-07-29T14:40:49;5.40;;;1.20;;
59587;SDS011;45412;54.472;18.464;2022-07-29T14:43:37;4.80;;;0.90;;
59587;SDS011;45412;54.472;18.464;2022-07-29T14:46:26;4.40;;;0.90;;
59587;SDS011;45412;54.472;18.464;2022-07-29T14:49:15;4.40;;;0.90;;
59587;SDS011;45412;54.472;18.464;2022-07-29T14:52:04;5.60;;;1.10;;
59587;SDS011;45412;54.472;18.464;2022-07-29T14:54:51;5.10;;;1.10;;
59587;SDS011;45412;54.472;18.464;2022-07-29T14:57:39;4.40;;;1.00;;
59587;SDS011;45412;54.472;18.464;2022-07-29T15:00:27;4.20;;;0.90;;
59587;SDS011;45412;54.472;18.464;2022-07-29T15:03:20;4.60;;;0.80;;
59587;SDS011;45412;54.472;18.464;2022-07-29T15:06:10;5.20;;;0.90;;
59587;SDS011;45412;54.472;18.464;2022-07-29T15:08:58;5.10;;;1.00;;
59587;SDS011;45412;54.472;18.464;2022-07-29T15:11:46;5.40;;;1.00;;
59587;SDS011;45412;54.472;18.464;2022-07-29T15:14:34;4.20;;;0.90;;
59587;SDS011;45412;54.472;18.464;2022-07-29T15:17:24;3.80;;;0.80;;
59587;SDS011;45412;54.472;18.464;2022-07-29T15:20:13;4.30;;;0.90;;
59587;SDS011;45412;54.472;18.464;2022-07-29T15:23:01;4.40;;;0.90;;
59587;SDS011;45412;54.472;18.464;2022-07-29T15:25:49;5.10;;;0.90;;
59587;SDS011;45412;54.472;18.464;2022-07-29T15:28:37;5.70;;;1.10;;
59587;SDS011;45412;54.472;18.464;2022-07-29T15:31:25;4.50;;;1.20;;
59587;SDS011;45412;54.472;18.464;2022-07-29T15:34:13;5.20;;;0.80;;
59587;SDS011;45412;54.472;18.464;2022-07-29T15:37:04;7.00;;;2.10;;
59587;SDS011;45412;54.472;18.464;2022-07-29T15:39:52;6.90;;;1.50;;
59587;SDS011;45412;54.472;18.464;2022-07-29T15:42:46;5.60;;;1.40;;
59587;SDS011;45412;54.472;18.464;2022-07-29T15:45:38;5.30;;;1.20;;
59587;SDS011;45412;54.472;18.464;2022-07-29T15:48:50;5.10;;;1.30;;
59587;SDS011;45412;54.472;18.464;2022-07-29T15:51:38;5.20;;;1.20;;
59587;SDS011;45412;54.472;18.464;2022-07-29T15:54:27;5.10;;;1.10;;
59587;SDS011;45412;54.472;18.464;2022-07-29T15:57:15;5.20;;;1.20;;
59587;SDS011;45412;54.472;18.464;2022-07-29T16:00:04;4.50;;;1.10;;
59587;SDS011;45412;54.472;18.464;2022-07-29T16:02:55;4.20;;;1.00;;
59587;SDS011;45412;54.472;18.464;2022-07-29T16:05:43;3.60;;;0.90;;
59587;SDS011;45412;54.472;18.464;2022-07-29T16:08:32;4.50;;;0.90;;
59587;SDS011;45412;54.472;18.464;2022-07-29T16:11:20;5.20;;;1.10;;
59587;SDS011;45412;54.472;18.464;2022-07-29T16:14:09;4.70;;;0.90;;
59587;SDS011;45412;54.472;18.464;2022-07-29T16:16:57;6.10;;;1.10;;
59587;SDS011;45412;54.472;18.464;2022-07-29T16:19:49;4.90;;;1.00;;
59587;SDS011;45412;54.472;18.464;2022-07-29T16:22:37;4.60;;;0.90;;
59587;SDS011;45412;54.472;18.464;2022-07-29T16:25:25;4.20;;;0.90;;
59587;SDS011;45412;54.472;18.464;2022-07-29T16:28:33;4.10;;;0.80;;
59587;SDS011;45412;54.472;18.464;2022-07-29T16:31:21;3.90;;;1.10;;
59587;SDS011;45412;54.472;18.464;2022-07-29T16:34:10;3.40;;;0.70;;
59587;SDS011;45412;54.472;18.464;2022-07-29T16:36:58;4.40;;;0.80;;
59587;SDS011;45412;54.472;18.464;2022-07-29T16:39:47;5.00;;;0.90;;
59587;SDS011;45412;54.472;18.464;2022-07-29T16:42:35;4.10;;;1.00;;
59587;SDS011;45412;54.472;18.464;2022-07-29T16:45:34;4.10;;;0.80;;
59587;SDS011;45412;54.472;18.464;2022-07-29T16:48:32;5.50;;;0.90;;
59587;SDS011;45412;54.472;18.464;2022-07-29T16:51:24;3.70;;;1.00;;
59587;SDS011;45412;54.472;18.464;2022-07-29T16:54:12;4.20;;;0.90;;
59587;SDS011;45412;54.472;18.464;2022-07-29T16:57:00;4.70;;;1.00;;
59587;SDS011;45412;54.472;18.464;2022-07-29T16:59:50;4.50;;;1.00;;
59587;SDS011;45412;54.472;18.464;2022-07-29T17:02:38;4.80;;;1.00;;
59587;SDS011;45412;54.472;18.464;2022-07-29T17:05:27;6.00;;;1.00;;
59587;SDS011;45412;54.472;18.464;2022-07-29T17:08:15;4.70;;;1.10;;
59587;SDS011;45412;54.472;18.464;2022-07-29T17:11:03;4.90;;;0.90;;
59587;SDS011;45412;54.472;18.464;2022-07-29T17:13:54;6.00;;;1.10;;
59587;SDS011;45412;54.472;18.464;2022-07-29T17:16:42;4.70;;;0.90;;
59587;SDS011;45412;54.472;18.464;2022-07-29T17:19:45;4.90;;;0.90;;
59587;SDS011;45412;54.472;18.464;2022-07-29T17:22:34;4.70;;;0.80;;
59587;SDS011;45412;54.472;18.464;2022-07-29T17:25:23;3.70;;;0.80;;
59587;SDS011;45412;54.472;18.464;2022-07-29T17:28:12;3.70;;;0.80;;
59587;SDS011;45412;54.472;18.464;2022-07-29T17:31:00;4.40;;;1.00;;
59587;SDS011;45412;54.472;18.464;2022-07-29T17:33:48;4.80;;;1.00;;
59587;SDS011;45412;54.472;18.464;2022-07-29T17:36:37;4.10;;;1.00;;
59587;SDS011;45412;54.472;18.464;2022-07-29T17:39:25;5.90;;;1.20;;
59587;SDS011;45412;54.472;18.464;2022-07-29T17:42:14;4.60;;;1.00;;
59587;SDS011;45412;54.472;18.464;2022-07-29T17:45:03;4.90;;;1.20;;
59587;SDS011;45412;54.472;18.464;2022-07-29T17:47:51;4.50;;;1.00;;